createdAt,value
2019-04-24T00:00:31.499Z,20.30
2019-04-24T00:03:02.292Z,20.30
2019-04-24T00:08:27.136Z,20.40
2019-04-24T00:11:23.683Z,20.70
2019-04-24T00:16:22.518Z,20.40
2019-04-24T00:21:27.701Z,20.40
2019-04-24T00:24:14.624Z,20.40
2019-04-24T00:26:33.034Z,20.40
2019-04-24T00:29:20.966Z,20.40
2019-04-24T00:31:49.370Z,20.40
2019-04-24T00:42:10.207Z,20.40
2019-04-24T00:44:26.882Z,20.40
2019-04-24T00:47:08.597Z,20.30
2019-04-24T00:49:32.262Z,20.30
2019-04-24T00:52:11.898Z,20.30
2019-04-24T00:54:49.771Z,20.30
2019-04-24T00:57:39.743Z,20.20
2019-04-24T00:59:45.835Z,20.10
2019-04-24T01:02:31.689Z,20.10
2019-04-24T01:11:05.385Z,19.90
2019-04-24T01:21:26.122Z,19.60
2019-04-24T01:23:52.743Z,19.60
2019-04-24T01:28:53.091Z,19.60
2019-04-24T01:31:33.764Z,19.50
2019-04-24T01:37:19.523Z,19.50
2019-04-24T01:40:00.435Z,19.50
2019-04-24T01:42:37.397Z,19.50
2019-04-24T01:45:27.472Z,19.50
2019-04-24T01:47:57.523Z,19.50
2019-04-24T01:50:16.527Z,19.50
2019-04-24T01:55:18.469Z,19.60
2019-04-24T01:58:05.183Z,19.60
2019-04-24T02:00:49.228Z,19.50
2019-04-24T02:03:04.797Z,19.50
2019-04-24T02:05:33.981Z,19.60
2019-04-24T02:08:30.029Z,19.50
2019-04-24T02:11:25.087Z,19.50
2019-04-24T02:13:35.947Z,19.50
2019-04-24T02:16:23.349Z,19.50
2019-04-24T02:19:08.176Z,19.50
2019-04-24T02:24:04.231Z,19.50
2019-04-24T02:26:31.513Z,19.60
2019-04-24T02:29:12.504Z,19.60
2019-04-24T02:34:18.525Z,19.60
2019-04-24T02:37:16.744Z,19.60
2019-04-24T02:40:18.776Z,19.60
2019-04-24T02:48:19.231Z,19.60
2019-04-24T02:53:15.057Z,19.60
2019-04-24T02:55:37.554Z,19.70
2019-04-24T02:58:40.879Z,19.70
2019-04-24T03:14:30.323Z,19.80
2019-04-24T03:17:22.247Z,19.90
2019-04-24T03:22:35.979Z,19.90
2019-04-24T03:24:59.166Z,19.90
2019-04-24T03:35:57.638Z,20.00
2019-04-24T03:41:37.055Z,20.10
2019-04-24T03:45:59.130Z,20.10
2019-04-24T03:59:34.747Z,20.20
2019-04-24T04:02:49.072Z,20.20
2019-04-24T04:09:59.447Z,20.20
2019-04-24T04:18:12.843Z,20.20
2019-04-24T04:20:41.706Z,20.10
2019-04-24T04:23:38.025Z,20.10
2019-04-24T04:26:34.309Z,20.10
2019-04-24T04:34:58.059Z,20.10
2019-04-24T04:37:31.366Z,20.10
2019-04-24T04:43:06.433Z,20.00
2019-04-24T04:45:47.306Z,20.00
2019-04-24T04:48:25.179Z,20.00
2019-04-24T04:53:37.389Z,20.00
2019-04-24T04:56:26.632Z,20.00
2019-04-24T05:02:08.370Z,20.10
2019-04-24T05:04:45.039Z,20.10
2019-04-24T05:07:22.584Z,20.10
2019-04-24T05:12:15.525Z,20.10
2019-04-24T05:15:00.707Z,20.10
2019-04-24T05:17:35.104Z,20.20
2019-04-24T05:25:27.760Z,20.20
2019-04-24T05:30:32.540Z,20.30
2019-04-24T05:35:47.184Z,20.30
2019-04-24T05:38:32.132Z,20.40
2019-04-24T05:40:58.320Z,20.40
2019-04-24T05:43:50.452Z,20.40
2019-04-24T05:48:50.799Z,20.50
2019-04-24T05:51:54.857Z,20.50
2019-04-24T05:54:39.859Z,20.50
2019-04-24T05:59:57.413Z,20.50
2019-04-24T06:05:05.851Z,20.50
2019-04-24T06:16:53.941Z,20.60
2019-04-24T06:20:01.562Z,20.60
2019-04-24T06:22:19.681Z,20.70
2019-04-24T06:24:52.179Z,20.70
2019-04-24T06:30:03.204Z,20.80
2019-04-24T06:43:45.383Z,21.00
2019-04-24T06:46:10.535Z,21.10
2019-04-24T06:48:34.871Z,21.20
2019-04-24T06:51:22.478Z,21.20
2019-04-24T06:54:08.518Z,21.30
2019-04-24T06:56:55.640Z,21.30
2019-04-24T06:59:20.057Z,21.30
2019-04-24T07:02:07.256Z,21.40
2019-04-24T07:10:42.783Z,21.40
2019-04-24T07:13:30.521Z,21.50
2019-04-24T07:16:16.885Z,21.50
2019-04-24T07:18:36.013Z,21.60
2019-04-24T07:21:28.903Z,21.60
2019-04-24T07:24:01.760Z,21.60
2019-04-24T07:26:31.332Z,21.60
2019-04-24T07:29:03.681Z,21.60
2019-04-24T07:32:15.616Z,21.60
2019-04-24T07:37:46.719Z,21.60
2019-04-24T07:39:57.406Z,21.70
2019-04-24T07:42:23.137Z,21.70
2019-04-24T07:45:09.774Z,21.60
2019-04-24T07:50:07.935Z,21.60
2019-04-24T07:55:32.773Z,21.60
2019-04-24T07:57:56.060Z,21.60
2019-04-24T08:00:32.267Z,21.70
2019-04-24T08:05:37.170Z,21.80
2019-04-24T08:08:24.936Z,21.80
2019-04-24T08:13:34.110Z,21.90
2019-04-24T08:16:06.083Z,22.00
2019-04-24T08:18:32.871Z,22.00
2019-04-24T08:21:06.890Z,22.10
2019-04-24T08:26:20.811Z,22.20
2019-04-24T08:28:54.118Z,22.30
2019-04-24T08:32:02.166Z,22.40
2019-04-24T08:34:34.496Z,22.50
2019-04-24T08:39:44.129Z,22.60
2019-04-24T08:51:07.503Z,23.00
2019-04-24T08:53:10.000Z,23.10
2019-04-24T09:01:14.071Z,23.40
2019-04-24T09:03:55.662Z,23.50
2019-04-24T09:09:26.098Z,23.80
2019-04-24T09:12:53.971Z,23.90
2019-04-24T09:15:07.930Z,24.00
2019-04-24T09:17:51.821Z,24.10
2019-04-24T09:23:12.177Z,24.20
2019-04-24T09:26:37.562Z,24.30
2019-04-24T09:28:30.597Z,24.40
2019-04-24T09:31:01.666Z,24.50
2019-04-24T09:44:13.178Z,25.00
2019-04-24T09:46:41.246Z,25.10
2019-04-24T09:51:54.962Z,25.40
2019-04-24T09:55:02.158Z,25.50
2019-04-24T09:57:34.620Z,25.80
2019-04-24T09:59:57.533Z,25.90
2019-04-24T10:02:52.341Z,26.20
2019-04-24T10:05:45.341Z,26.40
2019-04-24T10:08:12.863Z,26.60
2019-04-24T10:10:42.857Z,26.90
2019-04-24T10:13:19.527Z,27.20
2019-04-24T10:15:54.071Z,27.50
2019-04-24T10:18:54.245Z,27.80
2019-04-24T10:21:12.885Z,28.20
2019-04-24T10:24:01.375Z,28.40
2019-04-24T10:29:40.139Z,28.90
2019-04-24T10:32:46.432Z,29.10
2019-04-24T10:35:17.477Z,29.40
2019-04-24T10:41:09.622Z,30.20
2019-04-24T10:44:05.608Z,30.50
2019-04-24T10:52:03.455Z,31.50
2019-04-24T10:54:43.691Z,31.60
2019-04-24T10:57:11.141Z,31.70
2019-04-24T11:02:46.895Z,32.10
2019-04-24T11:05:40.116Z,32.40
2019-04-24T11:08:25.515Z,32.70
2019-04-24T11:10:57.042Z,32.80
2019-04-24T11:14:04.712Z,32.90
2019-04-24T11:19:34.998Z,33.30
2019-04-24T11:24:57.608Z,33.50
2019-04-24T11:30:10.437Z,33.90
2019-04-24T11:36:17.240Z,34.30
2019-04-24T11:41:35.013Z,34.90
2019-04-24T11:44:14.949Z,35.00
2019-04-24T11:47:33.685Z,35.30
2019-04-24T11:53:03.081Z,36.00
2019-04-24T11:55:30.351Z,36.20
2019-04-24T11:58:29.392Z,36.40
2019-04-24T12:00:59.733Z,36.70
2019-04-24T12:03:57.963Z,36.80
2019-04-24T12:06:34.151Z,37.00
2019-04-24T12:08:57.597Z,37.20
2019-04-24T12:14:33.065Z,37.90
2019-04-24T12:17:21.422Z,38.30
2019-04-24T12:20:44.650Z,38.50
2019-04-24T12:22:53.681Z,38.60
2019-04-24T12:25:32.657Z,38.50
2019-04-24T12:28:13.848Z,38.50
2019-04-24T12:30:52.845Z,38.50
2019-04-24T12:33:44.913Z,38.50
2019-04-24T12:36:10.509Z,38.60
2019-04-24T12:38:55.318Z,38.80
2019-04-24T12:41:27.995Z,39.00
2019-04-24T12:44:35.953Z,39.10
2019-04-24T12:52:23.090Z,39.40
2019-04-24T12:55:12.568Z,39.40
2019-04-24T13:04:02.551Z,39.10
2019-04-24T13:22:01.389Z,38.80
2019-04-24T13:25:07.036Z,38.50
2019-04-24T13:28:16.858Z,38.10
2019-04-24T13:30:39.097Z,37.60
2019-04-24T13:33:20.775Z,37.10
2019-04-24T13:36:01.020Z,36.50
2019-04-24T13:43:55.486Z,34.90
2019-04-24T13:46:03.158Z,34.50
2019-04-24T13:48:46.382Z,34.20
2019-04-24T13:56:24.856Z,33.40
2019-04-24T13:58:58.639Z,33.20
2019-04-24T14:01:43.359Z,33.00
2019-04-24T14:09:33.707Z,32.40
2019-04-24T14:14:59.793Z,32.10
2019-04-24T14:20:02.020Z,31.90
2019-04-24T14:22:30.889Z,31.80
2019-04-24T14:25:18.030Z,31.70
2019-04-24T14:27:35.724Z,31.50
2019-04-24T14:30:09.930Z,31.40
2019-04-24T14:33:01.847Z,31.30
2019-04-24T14:35:24.946Z,31.20
2019-04-24T14:38:02.433Z,31.20
2019-04-24T14:40:27.614Z,31.20
2019-04-24T14:43:17.253Z,31.20
2019-04-24T14:45:57.002Z,31.20
2019-04-24T14:48:18.191Z,31.20
2019-04-24T14:50:47.622Z,31.20
2019-04-24T14:53:44.202Z,31.20
2019-04-24T14:56:06.562Z,31.20
2019-04-24T14:58:48.094Z,31.10
2019-04-24T15:03:45.042Z,30.90
2019-04-24T15:06:35.558Z,30.90
2019-04-24T15:09:11.859Z,30.80
2019-04-24T15:11:50.668Z,30.80
2019-04-24T15:14:13.981Z,30.70
2019-04-24T15:17:07.897Z,30.70
2019-04-24T15:19:48.853Z,30.60
2019-04-24T15:24:58.635Z,30.50
2019-04-24T15:27:18.682Z,30.40
2019-04-24T15:29:47.714Z,30.40
2019-04-24T15:32:27.072Z,30.30
2019-04-24T15:35:12.535Z,30.20
2019-04-24T15:37:33.362Z,30.20
2019-04-24T15:40:25.245Z,30.10
2019-04-24T15:42:53.565Z,30.00
2019-04-24T15:45:11.667Z,30.00
2019-04-24T15:48:07.293Z,30.00
2019-04-24T15:50:31.165Z,29.90
2019-04-24T15:52:32.918Z,29.90
2019-04-24T15:55:07.109Z,29.90
2019-04-24T15:57:41.358Z,29.80
2019-04-24T16:00:48.706Z,29.80
2019-04-24T16:05:24.171Z,29.70
2019-04-24T16:08:02.817Z,29.60
2019-04-24T16:10:36.537Z,29.60
2019-04-24T16:13:11.225Z,29.50
2019-04-24T16:16:15.246Z,29.40
2019-04-24T16:26:24.717Z,29.30
2019-04-24T16:29:06.667Z,29.30
2019-04-24T16:31:47.561Z,29.30
2019-04-24T16:34:13.581Z,29.30
2019-04-24T16:39:09.540Z,29.20
2019-04-24T16:42:05.674Z,29.20
2019-04-24T16:44:44.337Z,29.20
2019-04-24T16:47:11.606Z,29.20
2019-04-24T16:50:27.918Z,29.10
2019-04-24T16:57:18.068Z,29.10
2019-04-24T17:00:00.617Z,29.00
2019-04-24T17:02:29.989Z,29.00
2019-04-24T17:05:16.608Z,29.00
2019-04-24T17:07:41.146Z,28.90
2019-04-24T17:12:45.728Z,28.70
2019-04-24T17:15:25.277Z,28.80
2019-04-24T17:23:24.203Z,28.50
2019-04-24T17:28:49.885Z,27.90
2019-04-24T17:31:22.898Z,27.60
2019-04-24T17:33:40.829Z,27.30
2019-04-24T17:38:31.943Z,26.60
2019-04-24T17:41:06.738Z,26.30
2019-04-24T17:44:18.073Z,25.90
2019-04-24T17:46:32.761Z,25.60
2019-04-24T17:49:26.452Z,24.90
2019-04-24T17:51:43.915Z,24.00
2019-04-24T17:54:20.429Z,22.90
2019-04-24T17:59:03.552Z,21.00
2019-04-24T18:01:36.214Z,20.10
2019-04-24T18:04:08.573Z,19.40
2019-04-24T18:06:42.119Z,18.90
2019-04-24T18:09:15.173Z,18.40
2019-04-24T18:11:48.410Z,18.00
2019-04-24T18:14:20.463Z,17.70
2019-04-24T18:16:52.633Z,17.40
2019-04-24T18:19:24.635Z,17.20
2019-04-24T18:21:56.544Z,17.00
2019-04-24T18:24:56.747Z,16.80
2019-04-24T18:27:31.340Z,16.70
2019-04-24T18:30:05.225Z,16.60
2019-04-24T18:32:37.296Z,16.40
2019-04-24T18:35:09.699Z,16.30
2019-04-24T18:37:42.963Z,16.20
2019-04-24T18:40:15.526Z,16.10
2019-04-24T18:42:47.529Z,16.00
2019-04-24T18:45:21.181Z,16.00
2019-04-24T18:47:53.469Z,15.90
2019-04-24T18:50:25.525Z,15.90
2019-04-24T18:52:57.462Z,15.90
2019-04-24T18:55:29.456Z,15.90
2019-04-24T18:58:01.505Z,15.80
2019-04-24T19:00:33.438Z,15.80
2019-04-24T19:03:05.846Z,15.70
2019-04-24T19:05:38.656Z,15.70
2019-04-24T19:08:11.372Z,15.70
2019-04-24T19:10:44.327Z,15.70
2019-04-24T19:13:16.333Z,15.60
2019-04-24T19:15:48.208Z,15.60
2019-04-24T19:18:20.107Z,15.60
2019-04-24T19:20:52.141Z,15.60
2019-04-24T19:23:24.182Z,15.60
2019-04-24T19:25:56.228Z,15.60
2019-04-24T19:28:28.362Z,15.50
2019-04-24T19:31:00.449Z,15.50
2019-04-24T19:33:32.445Z,15.50
2019-04-24T19:36:04.800Z,15.50
2019-04-24T19:38:36.840Z,15.50
2019-04-24T19:41:11.277Z,15.50
2019-04-24T19:43:42.980Z,15.40
2019-04-24T19:46:16.676Z,15.40
2019-04-24T19:48:48.548Z,15.30
2019-04-24T19:51:20.505Z,15.30
2019-04-24T19:53:53.481Z,15.30
2019-04-24T19:56:25.577Z,15.20
2019-04-24T19:59:11.357Z,15.20
2019-04-24T20:01:43.425Z,15.10
2019-04-24T20:04:15.583Z,15.00
2019-04-24T20:06:47.493Z,15.00
2019-04-24T20:09:34.598Z,15.00
2019-04-24T20:12:09.279Z,14.90
2019-04-24T20:14:42.412Z,14.90
2019-04-24T20:17:16.687Z,14.90
2019-04-24T20:19:51.685Z,14.90
2019-04-24T20:22:24.012Z,14.80
2019-04-24T20:24:56.080Z,14.80
2019-04-24T20:27:27.860Z,14.80
2019-04-24T20:30:01.208Z,14.70
2019-04-24T20:32:34.201Z,14.70
2019-04-24T20:35:06.457Z,14.70
2019-04-24T20:37:39.391Z,14.60
2019-04-24T20:40:11.947Z,14.60
2019-04-24T20:42:43.953Z,14.50
2019-04-24T20:45:17.607Z,14.40
2019-04-24T20:47:49.355Z,14.40
2019-04-24T20:50:22.323Z,14.40
2019-04-24T20:52:57.824Z,14.40
2019-04-24T20:55:29.848Z,14.30
2019-04-24T20:58:01.691Z,14.30
2019-04-24T21:00:33.958Z,14.20
2019-04-24T21:03:05.772Z,14.20
2019-04-24T21:05:56.221Z,14.20
2019-04-24T21:08:52.648Z,14.20
2019-04-24T21:11:25.504Z,14.10
2019-04-24T21:13:57.356Z,14.10
2019-04-24T21:16:29.303Z,14.00
2019-04-24T21:19:01.431Z,14.00
2019-04-24T21:21:33.384Z,14.00
2019-04-24T21:24:07.089Z,13.90
2019-04-24T21:26:39.149Z,13.90
2019-04-24T21:29:12.027Z,13.90
2019-04-24T21:31:43.865Z,13.80
2019-04-24T21:34:15.877Z,13.80
2019-04-24T21:36:47.763Z,13.70
2019-04-24T21:39:21.033Z,13.70
2019-04-24T21:41:54.340Z,13.70
2019-04-24T21:44:26.328Z,13.60
2019-04-24T21:46:58.248Z,13.60
2019-04-24T21:49:30.484Z,13.60
2019-04-24T21:52:02.219Z,13.50
2019-04-24T21:54:35.867Z,13.50
2019-04-24T21:57:07.816Z,13.50
2019-04-24T21:59:41.460Z,13.50
2019-04-24T22:02:28.125Z,13.60
2019-04-24T22:05:11.498Z,13.50
2019-04-24T22:07:46.642Z,13.60
2019-04-24T22:10:19.145Z,13.60
2019-04-24T22:12:52.167Z,13.60
2019-04-24T22:15:24.697Z,13.60
2019-04-24T22:17:57.305Z,13.60
2019-04-24T22:20:37.164Z,13.60
2019-04-24T22:23:23.540Z,13.60
2019-04-24T22:25:58.041Z,13.70
2019-04-24T22:28:31.885Z,13.70
2019-04-24T22:31:14.817Z,13.70
2019-04-24T22:33:54.654Z,13.60
2019-04-24T22:36:27.382Z,13.70
2019-04-24T22:39:17.246Z,13.70
2019-04-24T22:41:49.164Z,13.70
2019-04-24T22:44:21.131Z,13.70
2019-04-24T22:46:54.375Z,13.60
2019-04-24T22:49:26.261Z,13.70
2019-04-24T22:51:58.069Z,13.60
2019-04-24T22:54:32.423Z,13.60
2019-04-24T22:57:03.481Z,13.70
2019-04-24T22:59:35.891Z,13.60
2019-04-24T23:02:07.897Z,13.60
2019-04-24T23:04:39.590Z,13.60
2019-04-24T23:07:12.315Z,13.60
2019-04-24T23:09:45.779Z,13.60
2019-04-24T23:12:17.777Z,13.60
2019-04-24T23:14:51.104Z,13.60
2019-04-24T23:17:23.083Z,13.60
2019-04-24T23:19:55.010Z,13.50
2019-04-24T23:22:54.795Z,13.50
2019-04-24T23:25:37.217Z,13.50
2019-04-24T23:28:13.705Z,13.50
2019-04-24T23:30:56.687Z,13.50
2019-04-24T23:33:47.463Z,13.50
2019-04-24T23:36:19.244Z,13.50
2019-04-24T23:38:52.298Z,13.50
2019-04-24T23:41:24.205Z,13.40
2019-04-24T23:43:55.992Z,13.40
2019-04-24T23:46:28.017Z,13.40
2019-04-24T23:48:59.853Z,13.40
2019-04-24T23:51:31.550Z,13.40
2019-04-24T23:54:03.299Z,13.40
2019-04-24T23:56:35.538Z,13.40
2019-04-24T23:59:08.475Z,13.30
